createdAt,value
2022-09-04T00:00:09.040Z,949.1
2022-09-04T00:01:15.164Z,949.1
2022-09-04T00:02:21.325Z,949.1
2022-09-04T00:03:27.486Z,949.1
2022-09-04T00:04:33.573Z,949.1
2022-09-04T00:05:39.714Z,949.1
2022-09-04T00:06:45.829Z,949.1
2022-09-04T00:07:51.969Z,949.1
2022-09-04T00:08:58.099Z,949.1
2022-09-04T00:10:04.219Z,949.1
2022-09-04T00:11:09.364Z,949.1
2022-09-04T00:12:15.479Z,949.1
2022-09-04T00:13:21.619Z,949.1
2022-09-04T00:14:27.745Z,949.1
2022-09-04T00:15:33.886Z,949.1
2022-09-04T00:16:40.013Z,949.1
2022-09-04T00:17:46.147Z,949.1
2022-09-04T00:18:52.264Z,949.1
2022-09-04T00:19:58.394Z,949.1
2022-09-04T00:21:04.529Z,949.1
2022-09-04T00:22:10.661Z,949.1
2022-09-04T00:23:16.792Z,949.1
2022-09-04T00:24:22.937Z,949.1
2022-09-04T00:25:29.092Z,949.1
2022-09-04T00:26:34.209Z,949.1
2022-09-04T00:27:40.345Z,949.1
2022-09-04T00:28:46.491Z,949.1
2022-09-04T00:29:52.594Z,949.1
2022-09-04T00:30:58.771Z,949.1
2022-09-04T00:32:04.917Z,949.1
2022-09-04T00:33:11.021Z,949.1
2022-09-04T00:34:17.160Z,949.1
2022-09-04T00:35:23.285Z,949.1
2022-09-04T00:36:29.431Z,949.1
2022-09-04T00:37:35.560Z,949.1
2022-09-04T00:38:41.685Z,949.1
2022-09-04T00:39:47.818Z,949.1
2022-09-04T00:40:52.959Z,949.1
2022-09-04T00:41:59.093Z,949.2
2022-09-04T00:43:05.259Z,949.2
2022-09-04T00:44:11.365Z,949.2
2022-09-04T00:45:17.481Z,949.2
2022-09-04T00:46:23.633Z,949.2
2022-09-04T00:47:29.760Z,949.2
2022-09-04T00:48:35.881Z,949.2
2022-09-04T00:49:42.020Z,949.2
2022-09-04T00:50:48.172Z,949.2
2022-09-04T00:51:54.304Z,949.2
2022-09-04T00:53:00.433Z,949.2
2022-09-04T00:54:06.582Z,949.2
2022-09-04T00:55:12.713Z,949.2
2022-09-04T00:56:18.875Z,949.2
2022-09-04T00:57:24.998Z,949.2
2022-09-04T00:58:31.141Z,949.2
2022-09-04T00:59:37.273Z,949.3
2022-09-04T01:00:42.455Z,949.3
2022-09-04T01:01:48.565Z,949.3
2022-09-04T01:02:54.711Z,949.3
2022-09-04T01:04:00.835Z,949.3
2022-09-04T01:05:06.965Z,949.3
2022-09-04T01:07:19.254Z,949.3
2022-09-04T01:08:25.376Z,949.3
2022-09-04T01:09:31.514Z,949.3
2022-09-04T01:10:37.650Z,949.3
2022-09-04T01:11:43.827Z,949.3
2022-09-04T01:12:49.918Z,949.3
2022-09-04T01:13:56.054Z,949.3
2022-09-04T01:15:01.211Z,949.3
2022-09-04T01:16:07.341Z,949.3
2022-09-04T01:17:13.475Z,949.3
2022-09-04T01:18:19.632Z,949.3
2022-09-04T01:19:25.745Z,949.3
2022-09-04T01:20:31.866Z,949.3
2022-09-04T01:21:38.002Z,949.3
2022-09-04T01:22:44.175Z,949.3
2022-09-04T01:23:50.302Z,949.3
2022-09-04T01:24:56.429Z,949.3
2022-09-04T01:26:02.568Z,949.4
2022-09-04T01:27:08.682Z,949.4
2022-09-04T01:28:14.822Z,949.4
2022-09-04T01:29:20.947Z,949.4
2022-09-04T01:30:27.089Z,949.4
2022-09-04T01:31:33.219Z,949.4
2022-09-04T01:32:39.343Z,949.4
2022-09-04T01:33:44.550Z,949.4
2022-09-04T01:34:50.632Z,949.4
2022-09-04T01:35:56.765Z,949.4
2022-09-04T01:37:02.908Z,949.4
2022-09-04T01:38:09.032Z,949.4
2022-09-04T01:39:15.163Z,949.5
2022-09-04T01:40:21.293Z,949.4
2022-09-04T01:41:27.456Z,949.4
2022-09-04T01:42:33.591Z,949.5
2022-09-04T01:43:39.690Z,949.4
2022-09-04T01:44:45.845Z,949.5
2022-09-04T01:45:51.969Z,949.4
2022-09-04T01:46:58.141Z,949.4
2022-09-04T01:48:03.247Z,949.5
2022-09-04T01:49:09.369Z,949.5
2022-09-04T01:50:15.523Z,949.5
2022-09-04T01:51:21.629Z,949.5
2022-09-04T01:52:27.776Z,949.5
2022-09-04T01:53:33.898Z,949.5
2022-09-04T01:54:40.031Z,949.5
2022-09-04T01:55:46.185Z,949.5
2022-09-04T01:56:52.300Z,949.4
2022-09-04T01:57:58.418Z,949.4
2022-09-04T01:59:04.551Z,949.4
2022-09-04T02:00:10.677Z,949.5
2022-09-04T02:01:16.800Z,949.5
2022-09-04T02:02:22.938Z,949.5
2022-09-04T02:03:28.099Z,949.4
2022-09-04T02:04:34.245Z,949.4
2022-09-04T02:05:40.346Z,949.4
2022-09-04T02:06:46.474Z,949.4
2022-09-04T02:07:52.604Z,949.4
2022-09-04T02:08:58.758Z,949.4
2022-09-04T02:10:04.859Z,949.4
2022-09-04T02:11:11.027Z,949.5
2022-09-04T02:12:17.128Z,949.4
2022-09-04T02:13:23.266Z,949.5
2022-09-04T02:14:29.375Z,949.5
2022-09-04T02:15:35.516Z,949.5
2022-09-04T02:16:41.642Z,949.5
2022-09-04T02:17:46.785Z,949.5
2022-09-04T02:18:52.931Z,949.5
2022-09-04T02:19:59.064Z,949.5
2022-09-04T02:21:05.201Z,949.5
2022-09-04T02:22:11.322Z,949.5
2022-09-04T02:23:17.471Z,949.4
2022-09-04T02:24:23.595Z,949.4
2022-09-04T02:25:29.730Z,949.4
2022-09-04T02:26:35.864Z,949.4
2022-09-04T02:27:42.004Z,949.4
2022-09-04T02:28:48.136Z,949.4
2022-09-04T02:29:54.261Z,949.5
2022-09-04T02:31:00.442Z,949.5
2022-09-04T02:32:06.548Z,949.5
2022-09-04T02:33:12.701Z,949.5
2022-09-04T02:34:18.826Z,949.5
2022-09-04T02:35:23.973Z,949.5
2022-09-04T02:36:30.101Z,949.5
2022-09-04T02:37:36.259Z,949.5
2022-09-04T02:38:42.366Z,949.4
2022-09-04T02:39:48.491Z,949.5
2022-09-04T02:40:54.603Z,949.5
2022-09-04T02:42:00.753Z,949.5
2022-09-04T02:43:06.883Z,949.5
2022-09-04T02:44:13.022Z,949.5
2022-09-04T02:45:19.133Z,949.5
2022-09-04T02:46:26.425Z,949.5
2022-09-04T02:47:31.404Z,949.5
2022-09-04T02:48:37.539Z,949.5
2022-09-04T02:49:43.674Z,949.5
2022-09-04T02:50:48.807Z,949.5
2022-09-04T02:51:54.945Z,949.5
2022-09-04T02:53:01.078Z,949.5
2022-09-04T02:54:07.252Z,949.5
2022-09-04T02:55:13.374Z,949.5
2022-09-04T02:56:19.492Z,949.5
2022-09-04T02:57:25.618Z,949.5
2022-09-04T02:58:31.753Z,949.5
2022-09-04T02:59:37.883Z,949.5
2022-09-04T03:00:44.009Z,949.5
2022-09-04T03:01:50.143Z,949.5
2022-09-04T03:02:56.287Z,949.5
2022-09-04T03:04:02.413Z,949.5
2022-09-04T03:05:07.554Z,949.5
2022-09-04T03:06:13.696Z,949.5
2022-09-04T03:07:19.824Z,949.5
2022-09-04T03:08:25.984Z,949.5
2022-09-04T03:09:32.098Z,949.6
2022-09-04T03:10:38.237Z,949.6
2022-09-04T03:11:44.377Z,949.6
2022-09-04T03:12:50.513Z,949.5
2022-09-04T03:13:56.688Z,949.6
2022-09-04T03:15:02.768Z,949.6
2022-09-04T03:16:08.907Z,949.6
2022-09-04T03:17:15.063Z,949.6
2022-09-04T03:18:21.188Z,949.6
2022-09-04T03:19:27.344Z,949.6
2022-09-04T03:20:32.464Z,949.6
2022-09-04T03:21:38.597Z,949.6
2022-09-04T03:22:44.794Z,949.6
2022-09-04T03:23:50.883Z,949.6
2022-09-04T03:24:57.004Z,949.5
2022-09-04T03:26:03.145Z,949.5
2022-09-04T03:27:09.293Z,949.6
2022-09-04T03:28:15.430Z,949.6
2022-09-04T03:29:21.563Z,949.6
2022-09-04T03:30:27.698Z,949.6
2022-09-04T03:31:33.846Z,949.6
2022-09-04T03:32:39.986Z,949.6
2022-09-04T03:33:46.118Z,949.6
2022-09-04T03:34:52.239Z,949.6
2022-09-04T03:35:57.392Z,949.6
2022-09-04T03:37:03.535Z,949.6
2022-09-04T03:38:09.713Z,949.6
2022-09-04T03:39:15.824Z,949.6
2022-09-04T03:40:21.952Z,949.6
2022-09-04T03:41:28.082Z,949.6
2022-09-04T03:42:34.236Z,949.6
2022-09-04T03:43:40.363Z,949.6
2022-09-04T03:44:45.514Z,949.6
2022-09-04T03:45:51.665Z,949.6
2022-09-04T03:46:57.796Z,949.6
2022-09-04T03:48:03.927Z,949.7
2022-09-04T03:49:10.046Z,949.7
2022-09-04T03:50:16.186Z,949.7
2022-09-04T03:51:22.323Z,949.7
2022-09-04T03:52:28.468Z,949.7
2022-09-04T03:53:34.588Z,949.7
2022-09-04T03:54:40.725Z,949.7
2022-09-04T03:55:46.851Z,949.7
2022-09-04T03:56:52.990Z,949.7
2022-09-04T03:57:59.141Z,949.7
2022-09-04T03:59:05.268Z,949.7
2022-09-04T04:00:11.438Z,949.7
2022-09-04T04:01:17.555Z,949.7
2022-09-04T04:02:23.684Z,949.7
2022-09-04T04:03:29.814Z,949.7
2022-09-04T04:04:35.959Z,949.7
2022-09-04T04:05:42.107Z,949.8
2022-09-04T04:06:48.234Z,949.8
2022-09-04T04:07:54.382Z,949.8
2022-09-04T04:09:00.523Z,949.8
2022-09-04T04:10:06.689Z,949.8
2022-09-04T04:11:11.841Z,949.8
2022-09-04T04:12:17.942Z,949.8
2022-09-04T04:13:24.076Z,949.8
2022-09-04T04:14:30.244Z,949.8
2022-09-04T04:15:36.376Z,949.8
2022-09-04T04:16:42.488Z,949.8
2022-09-04T04:17:48.633Z,949.8
2022-09-04T04:18:54.782Z,949.8
2022-09-04T04:20:00.927Z,949.8
2022-09-04T04:21:07.059Z,949.8
2022-09-04T04:22:13.196Z,949.8
2022-09-04T04:23:19.348Z,949.8
2022-09-04T04:24:25.483Z,949.8
2022-09-04T04:25:31.614Z,949.9
2022-09-04T04:26:37.757Z,949.9
2022-09-04T04:27:43.915Z,949.9
2022-09-04T04:28:50.083Z,949.9
2022-09-04T04:29:56.193Z,949.9
2022-09-04T04:31:02.347Z,949.9
2022-09-04T04:32:08.499Z,949.9
2022-09-04T04:33:14.640Z,949.9
2022-09-04T04:34:20.772Z,949.9
2022-09-04T04:35:25.918Z,949.9
2022-09-04T04:36:32.095Z,949.9
2022-09-04T04:37:38.205Z,949.9
2022-09-04T04:38:44.406Z,949.9
2022-09-04T04:39:50.505Z,950
2022-09-04T04:40:56.626Z,950
2022-09-04T04:42:02.780Z,950
2022-09-04T04:43:08.927Z,950.1
2022-09-04T04:44:15.050Z,950.1
2022-09-04T04:45:21.190Z,950.1
2022-09-04T04:46:27.328Z,950.1
2022-09-04T04:47:33.477Z,950.1
2022-09-04T04:48:39.596Z,950.1
2022-09-04T04:49:45.748Z,950.2
2022-09-04T04:51:58.017Z,950.2
2022-09-04T04:53:04.152Z,950.2
2022-09-04T04:54:09.295Z,950.2
2022-09-04T04:55:15.417Z,950.2
2022-09-04T04:56:21.553Z,950.3
2022-09-04T04:57:27.694Z,950.3
2022-09-04T04:58:33.831Z,950.3
2022-09-04T04:59:39.970Z,950.3
2022-09-04T05:00:46.110Z,950.3
2022-09-04T05:01:52.262Z,950.3
2022-09-04T05:02:58.370Z,950.3
2022-09-04T05:04:04.501Z,950.4
2022-09-04T05:05:10.663Z,950.4
2022-09-04T05:06:16.802Z,950.5
2022-09-04T05:07:22.947Z,950.5
2022-09-04T05:08:29.092Z,950.5
2022-09-04T05:09:35.227Z,950.5
2022-09-04T05:10:41.381Z,950.5
2022-09-04T05:11:47.510Z,950.6
2022-09-04T05:12:53.650Z,950.6
2022-09-04T05:13:59.786Z,950.6
2022-09-04T05:15:04.959Z,950.6
2022-09-04T05:16:11.084Z,950.6
2022-09-04T05:17:17.263Z,950.6
2022-09-04T05:18:23.373Z,950.6
2022-09-04T05:19:29.523Z,950.6
2022-09-04T05:20:35.660Z,950.6
2022-09-04T05:21:41.827Z,950.7
2022-09-04T05:22:47.941Z,950.6
2022-09-04T05:23:54.079Z,950.6
2022-09-04T05:25:00.209Z,950.7
2022-09-04T05:26:06.352Z,950.7
2022-09-04T05:27:12.542Z,950.7
2022-09-04T05:28:18.638Z,950.7
2022-09-04T05:29:23.752Z,950.7
2022-09-04T05:30:29.894Z,950.7
2022-09-04T05:31:36.047Z,950.7
2022-09-04T05:32:42.177Z,950.7
2022-09-04T05:33:48.305Z,950.8
2022-09-04T05:34:54.455Z,950.8
2022-09-04T05:36:00.609Z,950.8
2022-09-04T05:37:06.734Z,950.8
2022-09-04T05:38:12.859Z,950.8
2022-09-04T05:39:18.996Z,950.9
2022-09-04T05:40:25.139Z,950.8
2022-09-04T05:41:31.313Z,950.9
2022-09-04T05:42:37.432Z,950.9
2022-09-04T05:43:43.595Z,950.9
2022-09-04T05:44:49.703Z,950.9
2022-09-04T05:45:55.849Z,950.9
2022-09-04T05:47:01.973Z,950.9
2022-09-04T05:48:08.124Z,951
2022-09-04T05:49:14.264Z,951
2022-09-04T05:50:20.419Z,951
2022-09-04T05:51:26.535Z,951
2022-09-04T05:52:32.676Z,951
2022-09-04T05:53:38.808Z,951
2022-09-04T05:54:44.944Z,951
2022-09-04T05:55:50.082Z,951
2022-09-04T05:56:56.222Z,951
2022-09-04T05:58:02.360Z,951
2022-09-04T05:59:08.518Z,951
2022-09-04T06:00:14.662Z,951
2022-09-04T06:01:20.758Z,951
2022-09-04T06:02:26.903Z,951
2022-09-04T06:03:33.050Z,951
2022-09-04T06:04:39.174Z,951
2022-09-04T06:05:45.391Z,951
2022-09-04T06:06:51.489Z,951
2022-09-04T06:09:03.756Z,950.9
2022-09-04T06:10:09.943Z,950.9
2022-09-04T06:11:16.061Z,950.9
2022-09-04T06:12:22.196Z,950.9
2022-09-04T06:13:28.350Z,950.9
2022-09-04T06:14:34.521Z,950.9
2022-09-04T06:15:40.633Z,951
2022-09-04T06:16:46.770Z,951
2022-09-04T06:17:51.939Z,951
2022-09-04T06:18:58.060Z,950.9
2022-09-04T06:20:04.193Z,951
2022-09-04T06:21:10.326Z,951
2022-09-04T06:22:16.498Z,951
2022-09-04T06:23:22.627Z,951
2022-09-04T06:24:28.783Z,951
2022-09-04T06:25:34.929Z,951
2022-09-04T06:26:41.062Z,951
2022-09-04T06:27:47.215Z,951
2022-09-04T06:28:53.322Z,951
2022-09-04T06:29:59.493Z,950.9
2022-09-04T06:31:05.602Z,950.9
2022-09-04T06:32:11.769Z,951
2022-09-04T06:33:16.865Z,951
2022-09-04T06:34:23.018Z,951
2022-09-04T06:35:29.123Z,951
2022-09-04T06:36:35.242Z,951
2022-09-04T06:37:41.370Z,951
2022-09-04T06:38:47.528Z,951
2022-09-04T06:39:53.596Z,951
2022-09-04T06:40:59.727Z,951
2022-09-04T06:42:05.859Z,951.1
2022-09-04T06:43:12.003Z,951.1
2022-09-04T06:44:18.070Z,951.1
2022-09-04T06:45:24.194Z,951.1
2022-09-04T06:46:30.336Z,951.1
2022-09-04T06:47:35.457Z,951.1
2022-09-04T06:48:41.536Z,951.1
2022-09-04T06:49:47.649Z,951.2
2022-09-04T06:50:53.749Z,951.2
2022-09-04T06:51:59.860Z,951.2
2022-09-04T06:53:07.437Z,951.2
2022-09-04T06:54:12.081Z,951.2
2022-09-04T06:55:18.190Z,951.2
2022-09-04T06:56:24.310Z,951.2
2022-09-04T06:57:30.444Z,951.2
2022-09-04T06:58:36.510Z,951.2
2022-09-04T06:59:42.619Z,951.3
2022-09-04T07:00:48.729Z,951.3
2022-09-04T07:01:53.834Z,951.3
2022-09-04T07:02:59.949Z,951.3
2022-09-04T07:04:06.047Z,951.3
2022-09-04T07:05:12.126Z,951.3
2022-09-04T07:06:18.198Z,951.3
2022-09-04T07:07:24.308Z,951.3
2022-09-04T07:08:30.421Z,951.2
2022-09-04T07:09:36.485Z,951.2
2022-09-04T07:10:42.579Z,951.2
2022-09-04T07:11:48.680Z,951.2
2022-09-04T07:12:54.769Z,951.2
2022-09-04T07:14:00.896Z,951.2
2022-09-04T07:15:06.966Z,951.3
2022-09-04T07:16:12.061Z,951.2
2022-09-04T07:17:18.177Z,951.3
2022-09-04T07:18:24.308Z,951.3
2022-09-04T07:19:30.333Z,951.3
2022-09-04T07:20:36.402Z,951.3
2022-09-04T07:21:42.478Z,951.3
2022-09-04T07:22:48.603Z,951.3
2022-09-04T07:23:54.648Z,951.3
2022-09-04T07:25:00.765Z,951.4
2022-09-04T07:26:05.857Z,951.4
2022-09-04T07:27:11.908Z,951.4
2022-09-04T07:28:17.981Z,951.4
2022-09-04T07:29:24.051Z,951.4
2022-09-04T07:30:30.130Z,951.4
2022-09-04T07:31:36.205Z,951.5
2022-09-04T07:32:42.291Z,951.5
2022-09-04T07:33:48.348Z,951.5
2022-09-04T07:34:54.469Z,951.5
2022-09-04T07:36:00.481Z,951.5
2022-09-04T07:37:06.553Z,951.5
2022-09-04T07:38:12.620Z,951.5
2022-09-04T07:39:18.714Z,951.5
2022-09-04T07:40:23.768Z,951.5
2022-09-04T07:41:29.844Z,951.5
2022-09-04T07:42:35.918Z,951.5
2022-09-04T07:43:41.969Z,951.5
2022-09-04T07:44:48.053Z,951.5
2022-09-04T07:45:54.126Z,951.5
2022-09-04T07:47:00.183Z,951.5
2022-09-04T07:48:06.237Z,951.6
2022-09-04T07:49:12.315Z,951.6
2022-09-04T07:50:18.383Z,951.6
2022-09-04T07:51:24.442Z,951.6
2022-09-04T07:52:30.485Z,951.6
2022-09-04T07:53:36.538Z,951.6
2022-09-04T07:54:42.590Z,951.6
2022-09-04T07:55:48.647Z,951.6
2022-09-04T07:56:54.706Z,951.6
2022-09-04T07:58:00.747Z,951.6
2022-09-04T07:59:06.813Z,951.6
2022-09-04T08:00:12.872Z,951.6
2022-09-04T08:01:20.115Z,951.6
2022-09-04T08:02:24.983Z,951.6
2022-09-04T08:03:31.030Z,951.6
2022-09-04T08:04:37.072Z,951.7
2022-09-04T08:05:43.120Z,951.7
2022-09-04T08:06:49.184Z,951.7
2022-09-04T08:07:55.243Z,951.7
2022-09-04T08:09:01.281Z,951.7
2022-09-04T08:10:07.308Z,951.7
2022-09-04T08:11:13.354Z,951.7
2022-09-04T08:12:19.455Z,951.7
2022-09-04T08:13:25.499Z,951.7
2022-09-04T08:14:31.490Z,951.7
2022-09-04T08:15:37.504Z,951.8
2022-09-04T08:16:43.532Z,951.8
2022-09-04T08:17:49.577Z,951.8
2022-09-04T08:18:55.646Z,951.8
2022-09-04T08:20:01.627Z,951.8
2022-09-04T08:21:07.735Z,951.8
2022-09-04T08:22:13.819Z,951.8
2022-09-04T08:23:19.918Z,951.8
2022-09-04T08:24:25.971Z,951.8
2022-09-04T08:25:32.056Z,951.8
2022-09-04T08:26:38.130Z,951.8
2022-09-04T08:27:44.245Z,951.8
2022-09-04T08:28:50.260Z,951.8
2022-09-04T08:29:56.343Z,951.9
2022-09-04T08:31:02.401Z,951.8
2022-09-04T08:32:10.578Z,951.9
2022-09-04T08:33:15.576Z,951.9
2022-09-04T08:34:20.541Z,951.9
2022-09-04T08:35:26.696Z,951.9
2022-09-04T08:36:31.842Z,951.9
2022-09-04T08:37:40.092Z,951.9
2022-09-04T08:38:43.784Z,951.9
2022-09-04T08:39:49.745Z,951.9
2022-09-04T08:40:55.685Z,951.9
2022-09-04T08:42:01.643Z,951.9
2022-09-04T08:43:07.568Z,951.9
2022-09-04T08:44:13.505Z,951.9
2022-09-04T08:45:19.422Z,952
2022-09-04T08:46:25.343Z,952
2022-09-04T08:47:31.278Z,952
2022-09-04T08:48:37.153Z,952
2022-09-04T08:49:43.063Z,952
2022-09-04T08:50:48.966Z,952
2022-09-04T08:51:54.860Z,952
2022-09-04T08:53:00.728Z,952
2022-09-04T08:54:06.654Z,952
2022-09-04T08:55:12.526Z,952
2022-09-04T08:56:18.369Z,952
2022-09-04T08:57:24.245Z,952
2022-09-04T08:58:30.122Z,952.1
2022-09-04T08:59:35.978Z,952.1
2022-09-04T09:00:41.825Z,952.1
2022-09-04T09:01:47.722Z,952.1
2022-09-04T09:02:53.549Z,952.1
2022-09-04T09:03:59.460Z,952.1
2022-09-04T09:05:05.368Z,952.1
2022-09-04T09:06:11.290Z,952.1
2022-09-04T09:07:17.188Z,952.1
2022-09-04T09:08:23.073Z,952.2
2022-09-04T09:09:28.997Z,952.2
2022-09-04T09:10:34.910Z,952.3
2022-09-04T09:11:40.785Z,952.3
2022-09-04T09:12:46.690Z,952.3
2022-09-04T09:13:52.586Z,952.4
2022-09-04T09:14:58.496Z,952.4
2022-09-04T09:16:04.394Z,952.4
2022-09-04T09:17:10.298Z,952.4
2022-09-04T09:18:16.297Z,952.5
2022-09-04T09:19:22.319Z,952.4
2022-09-04T09:20:28.315Z,952.4
2022-09-04T09:21:34.308Z,952.4
2022-09-04T09:22:40.364Z,952.4
2022-09-04T09:23:46.309Z,952.4
2022-09-04T09:24:52.323Z,952.3
2022-09-04T09:25:58.300Z,952.4
2022-09-04T09:27:04.301Z,952.4
2022-09-04T09:28:10.263Z,952.4
2022-09-04T09:29:16.270Z,952.4
2022-09-04T09:30:22.262Z,952.4
2022-09-04T09:31:28.260Z,952.4
2022-09-04T09:34:07.811Z,952.5
2022-09-04T09:35:14.013Z,952.1
2022-09-04T09:36:19.304Z,952.2
2022-09-04T09:37:25.151Z,952.1
2022-09-04T09:38:31.062Z,952.1
2022-09-04T09:39:37.000Z,952.1
2022-09-04T09:40:42.920Z,952
2022-09-04T09:41:48.853Z,952.1
2022-09-04T09:42:54.815Z,952
2022-09-04T09:44:00.730Z,952.1
2022-09-04T09:45:06.667Z,952.1
2022-09-04T09:46:12.587Z,952
2022-09-04T09:47:18.515Z,952
2022-09-04T09:48:24.485Z,951.9
2022-09-04T09:49:30.470Z,952
2022-09-04T09:50:36.435Z,952.1
2022-09-04T09:51:42.382Z,952.2
2022-09-04T09:52:48.320Z,952.2
2022-09-04T09:53:54.214Z,952.2
2022-09-04T09:55:00.056Z,952.3
2022-09-04T09:56:05.904Z,952.3
2022-09-04T09:57:11.718Z,952.2
2022-09-04T09:58:17.592Z,952.1
2022-09-04T09:59:23.409Z,952.1
2022-09-04T10:00:29.259Z,952.2
2022-09-04T10:01:35.116Z,952.2
2022-09-04T10:02:40.949Z,952.2
2022-09-04T10:03:46.862Z,952.1
2022-09-04T10:04:52.790Z,952.1
2022-09-04T10:05:58.698Z,952.2
2022-09-04T10:07:04.621Z,952.3
2022-09-04T10:08:10.519Z,952.3
2022-09-04T10:09:16.374Z,952.2
2022-09-04T10:10:22.217Z,952.2
2022-09-04T10:11:28.125Z,952.1
2022-09-04T10:12:34.011Z,952.2
2022-09-04T10:13:40.101Z,952.3
2022-09-04T10:14:45.752Z,952.2
2022-09-04T10:15:51.618Z,952.1
2022-09-04T10:16:57.454Z,952.2
2022-09-04T10:18:03.432Z,952.1
2022-09-04T10:19:09.404Z,952.1
2022-09-04T10:20:15.408Z,952.1
2022-09-04T10:21:21.395Z,952.2
2022-09-04T10:22:27.368Z,952.2
2022-09-04T10:23:33.330Z,952.2
2022-09-04T10:24:39.322Z,952.2
2022-09-04T10:25:45.235Z,952.2
2022-09-04T10:26:51.174Z,952.2
2022-09-04T10:27:57.122Z,952.2
2022-09-04T10:29:03.056Z,952.1
2022-09-04T10:30:09.053Z,952.2
2022-09-04T10:31:14.943Z,952.2
2022-09-04T10:33:54.362Z,952.2
2022-09-04T10:35:00.540Z,952
2022-09-04T10:36:06.636Z,951.9
2022-09-04T10:37:11.840Z,952
2022-09-04T10:38:17.698Z,952
2022-09-04T10:39:23.527Z,952.1
2022-09-04T10:40:29.328Z,952.2
2022-09-04T10:41:35.198Z,952.2
2022-09-04T10:42:40.941Z,952.2
2022-09-04T10:43:46.735Z,952.2
2022-09-04T10:44:52.517Z,952.1
2022-09-04T10:45:58.303Z,952.1
2022-09-04T10:47:04.135Z,952.1
2022-09-04T10:48:09.880Z,952.1
2022-09-04T10:49:15.674Z,952.1
2022-09-04T10:50:21.486Z,952
2022-09-04T10:51:27.263Z,952.1
2022-09-04T10:52:33.065Z,952.1
2022-09-04T10:53:38.821Z,952.1
2022-09-04T10:54:44.641Z,952.1
2022-09-04T10:55:50.412Z,952.1
2022-09-04T10:56:56.207Z,952.1
2022-09-04T10:58:01.998Z,952.1
2022-09-04T10:59:07.804Z,952.1
2022-09-04T11:00:13.614Z,952.1
2022-09-04T11:01:19.406Z,952.1
2022-09-04T11:02:25.223Z,952.1
2022-09-04T11:03:31.014Z,952.1
2022-09-04T11:04:36.865Z,952.1
2022-09-04T11:05:42.773Z,952.1
2022-09-04T11:06:48.564Z,952
2022-09-04T11:07:54.445Z,952.1
2022-09-04T11:09:00.282Z,952
2022-09-04T11:10:06.149Z,952
2022-09-04T11:11:12.023Z,952
2022-09-04T11:12:17.915Z,952
2022-09-04T11:13:23.792Z,952
2022-09-04T11:14:29.664Z,952
2022-09-04T11:15:35.537Z,952
2022-09-04T11:16:41.420Z,952
2022-09-04T11:17:47.334Z,952
2022-09-04T11:18:53.344Z,952
2022-09-04T11:19:59.329Z,952
2022-09-04T11:21:05.342Z,952
2022-09-04T11:22:11.378Z,951.9
2022-09-04T11:23:17.462Z,951.9
2022-09-04T11:24:23.549Z,951.9
2022-09-04T11:25:29.639Z,951.9
2022-09-04T11:26:35.757Z,951.9
2022-09-04T11:27:41.898Z,951.9
2022-09-04T11:28:47.050Z,951.8
2022-09-04T11:29:53.091Z,951.8
2022-09-04T11:30:59.035Z,951.7
2022-09-04T11:32:05.071Z,951.7
2022-09-04T11:33:11.058Z,951.6
2022-09-04T11:34:17.072Z,951.7
2022-09-04T11:35:23.111Z,951.6
2022-09-04T11:36:29.115Z,951.6
2022-09-04T11:37:35.161Z,951.6
2022-09-04T11:38:41.191Z,951.6
2022-09-04T11:39:47.214Z,951.6
2022-09-04T11:40:53.253Z,951.6
2022-09-04T11:41:59.285Z,951.6
2022-09-04T11:43:05.335Z,951.6
2022-09-04T11:44:11.373Z,951.6
2022-09-04T11:45:17.426Z,951.6
2022-09-04T11:46:23.464Z,951.6
2022-09-04T11:47:29.502Z,951.7
2022-09-04T11:48:35.572Z,951.7
2022-09-04T11:49:41.644Z,951.7
2022-09-04T11:50:47.665Z,951.7
2022-09-04T11:51:53.741Z,951.7
2022-09-04T11:52:59.791Z,951.7
2022-09-04T11:54:05.836Z,951.7
2022-09-04T11:55:10.939Z,951.7
2022-09-04T11:56:16.981Z,951.6
2022-09-04T11:57:23.045Z,951.6
2022-09-04T11:58:29.098Z,951.6
2022-09-04T11:59:35.156Z,951.6
2022-09-04T12:00:41.202Z,951.6
2022-09-04T12:01:47.284Z,951.6
2022-09-04T12:02:53.317Z,951.6
2022-09-04T12:03:59.375Z,951.6
2022-09-04T12:05:05.447Z,951.6
2022-09-04T12:06:11.559Z,951.6
2022-09-04T12:07:17.576Z,951.6
2022-09-04T12:08:23.637Z,951.6
2022-09-04T12:09:28.755Z,951.6
2022-09-04T12:10:33.847Z,951.6
2022-09-04T12:11:39.911Z,951.7
2022-09-04T12:12:45.974Z,951.7
2022-09-04T12:13:52.055Z,951.7
2022-09-04T12:14:58.139Z,951.7
2022-09-04T12:16:04.220Z,951.7
2022-09-04T12:17:10.307Z,951.8
2022-09-04T12:18:16.366Z,951.7
2022-09-04T12:19:22.452Z,951.7
2022-09-04T12:20:28.547Z,951.7
2022-09-04T12:21:34.609Z,951.7
2022-09-04T12:22:40.705Z,951.7
2022-09-04T12:23:46.757Z,951.7
2022-09-04T12:24:51.863Z,951.7
2022-09-04T12:25:57.949Z,951.8
2022-09-04T12:27:04.024Z,951.8
2022-09-04T12:28:10.157Z,951.7
2022-09-04T12:29:16.268Z,951.8
2022-09-04T12:30:22.298Z,951.8
2022-09-04T12:31:28.402Z,951.8
2022-09-04T12:32:33.477Z,951.8
2022-09-04T12:33:38.596Z,951.8
2022-09-04T12:34:43.714Z,951.8
2022-09-04T12:35:48.819Z,951.8
2022-09-04T12:36:53.903Z,951.8
2022-09-04T12:37:59.050Z,951.8
2022-09-04T12:39:05.104Z,951.8
2022-09-04T12:40:11.192Z,951.8
2022-09-04T12:41:17.288Z,951.8
2022-09-04T12:42:23.384Z,951.8
2022-09-04T12:43:29.460Z,951.8
2022-09-04T12:44:35.569Z,951.8
2022-09-04T12:45:41.651Z,951.8
2022-09-04T12:46:47.793Z,951.8
2022-09-04T12:47:53.850Z,951.8
2022-09-04T12:48:59.952Z,951.9
2022-09-04T12:50:06.062Z,951.8
2022-09-04T12:51:12.150Z,951.9
2022-09-04T12:52:17.252Z,951.9
2022-09-04T12:54:29.447Z,951.8
2022-09-04T12:55:35.539Z,951.8
2022-09-04T12:56:41.660Z,951.8
2022-09-04T12:57:47.758Z,951.8
2022-09-04T12:58:53.889Z,951.8
2022-09-04T12:59:59.969Z,951.8
2022-09-04T13:01:05.095Z,951.8
2022-09-04T13:02:10.179Z,951.8
2022-09-04T13:03:15.323Z,951.8
2022-09-04T13:04:20.415Z,951.8
2022-09-04T13:05:25.569Z,951.8
2022-09-04T13:06:30.688Z,951.8
2022-09-04T13:07:36.752Z,951.8
2022-09-04T13:08:42.845Z,951.8
2022-09-04T13:09:48.952Z,951.7
2022-09-04T13:10:55.048Z,951.7
2022-09-04T13:12:01.126Z,951.7
2022-09-04T13:13:07.249Z,951.7
2022-09-04T13:14:13.313Z,951.7
2022-09-04T13:15:19.413Z,951.7
2022-09-04T13:16:25.498Z,951.7
2022-09-04T13:17:31.602Z,951.7
2022-09-04T13:18:37.732Z,951.7
2022-09-04T13:19:43.816Z,951.7
2022-09-04T13:20:48.963Z,951.7
2022-09-04T13:21:55.024Z,951.8
2022-09-04T13:23:01.083Z,951.7
2022-09-04T13:24:07.170Z,951.7
2022-09-04T13:25:13.270Z,951.7
2022-09-04T13:26:19.395Z,951.8
2022-09-04T13:27:25.463Z,951.7
2022-09-04T13:28:30.576Z,951.7
2022-09-04T13:29:35.667Z,951.7
2022-09-04T13:30:40.794Z,951.7
2022-09-04T13:31:45.954Z,951.8
2022-09-04T13:32:52.002Z,951.8
2022-09-04T13:33:58.113Z,951.8
2022-09-04T13:35:04.204Z,951.8
2022-09-04T13:36:10.303Z,951.7
2022-09-04T13:37:16.406Z,951.7
2022-09-04T13:38:22.494Z,951.7
2022-09-04T13:39:28.639Z,951.7
2022-09-04T13:40:34.689Z,951.7
2022-09-04T13:41:40.812Z,951.7
2022-09-04T13:42:46.927Z,951.7
2022-09-04T13:43:53.036Z,951.7
2022-09-04T13:44:59.102Z,951.7
2022-09-04T13:46:04.249Z,951.7
2022-09-04T13:47:10.336Z,951.7
2022-09-04T13:48:16.430Z,951.7
2022-09-04T13:49:22.493Z,951.7
2022-09-04T13:50:28.635Z,951.7
2022-09-04T13:51:34.702Z,951.7
2022-09-04T13:52:40.835Z,951.7
2022-09-04T13:53:45.950Z,951.7
2022-09-04T13:54:51.051Z,951.7
2022-09-04T13:55:56.185Z,951.7
2022-09-04T13:57:01.284Z,951.7
2022-09-04T13:58:07.391Z,951.7
2022-09-04T13:59:13.489Z,951.7
2022-09-04T14:00:19.696Z,951.7
2022-09-04T14:01:25.677Z,951.7
2022-09-04T14:02:31.805Z,951.7
2022-09-04T14:03:37.952Z,951.7
2022-09-04T14:04:44.006Z,951.8
2022-09-04T14:05:50.063Z,951.7
2022-09-04T14:06:56.199Z,951.7
2022-09-04T14:08:02.261Z,951.7
2022-09-04T14:09:08.350Z,951.7
2022-09-04T14:10:14.460Z,951.7
2022-09-04T14:11:19.548Z,951.7
2022-09-04T14:12:25.653Z,951.7
2022-09-04T14:13:31.782Z,951.7
2022-09-04T14:14:37.837Z,951.7
2022-09-04T14:15:43.979Z,951.7
2022-09-04T14:16:50.053Z,951.7
2022-09-04T14:17:56.118Z,951.7
2022-09-04T14:19:01.272Z,951.7
2022-09-04T14:20:06.377Z,951.7
2022-09-04T14:21:11.490Z,951.7
2022-09-04T14:22:16.615Z,951.7